Time;durP1;ratioP1;P1;durP2;ratioP2;P2;SDS_P1;SDS_P2;PMS_P1;PMS_P2;Temp;Humidity;BMP_temperature;BMP_pressure;BME280_temperature;BME280_humidity;BME280_pressure;Samples;Min_cycle;Max_cycle;Signal;HPM_P1;HPM_P2
2022/10/24 00:02:05;;;;;;;5.85;1.17;;;18.60;1.00;;;;;;5106260;28;20794;-54
2022/10/24 00:04:34;;;;;;;9.93;1.50;;;18.50;1.00;;;;;;5101983;28;20364;-54
2022/10/24 00:07:00;;;;;;;6.00;1.00;;;18.40;1.00;;;;;;5098252;28;20386;-54
2022/10/24 00:09:26;;;;;;;8.60;1.30;;;18.40;1.00;;;;;;5108518;28;20429;-54
2022/10/24 00:11:52;;;;;;;5.90;1.50;;;18.40;1.00;;;;;;5095781;28;20855;-54
2022/10/24 00:14:18;;;;;;;8.32;1.20;;;18.30;1.00;;;;;;5085459;28;20743;-54
2022/10/24 00:16:43;;;;;;;10.50;1.20;;;18.20;1.00;;;;;;5103427;28;20390;-54
2022/10/24 00:19:09;;;;;;;7.43;1.17;;;18.10;1.00;;;;;;5096860;28;20374;-54
2022/10/24 00:21:34;;;;;;;9.10;1.25;;;18.00;1.00;;;;;;5090690;28;20408;-54
2022/10/24 00:24:00;;;;;;;6.47;1.20;;;18.00;1.00;;;;;;5096310;28;20373;-54
2022/10/24 00:26:26;;;;;;;6.90;2.27;;;18.10;1.00;;;;;;5103900;28;20382;-54
2022/10/24 00:28:51;;;;;;;8.30;1.30;;;18.00;1.00;;;;;;5104114;28;20857;-54
2022/10/24 00:31:18;;;;;;;11.80;1.23;;;18.00;1.00;;;;;;5096034;28;20394;-54
2022/10/24 00:33:45;;;;;;;7.40;1.40;;;18.00;1.00;;;;;;5108493;28;20437;-54
2022/10/24 00:36:16;;;;;;;6.10;1.08;;;18.00;1.00;;;;;;5097467;28;20422;-54
2022/10/24 00:38:42;;;;;;;6.60;1.20;;;17.90;1.00;;;;;;5101468;28;20402;-54
2022/10/24 00:41:13;;;;;;;6.50;1.05;;;17.90;1.00;;;;;;5105539;28;20404;-53
2022/10/24 00:43:39;;;;;;;9.45;1.83;;;17.80;1.00;;;;;;5095266;28;20427;-54
2022/10/24 00:46:05;;;;;;;7.67;1.40;;;17.70;1.00;;;;;;5105656;28;20378;-54
2022/10/24 00:48:32;;;;;;;7.10;1.10;;;17.70;1.00;;;;;;5101137;28;20384;-54
2022/10/24 00:51:09;;;;;;;6.33;1.23;;;17.80;1.00;;;;;;5097531;28;20867;-55
2022/10/24 00:53:42;;;;;;;6.30;1.20;;;17.80;1.00;;;;;;5108216;28;20457;-54
2022/10/24 00:56:10;;;;;;;8.90;1.40;;;17.80;1.00;;;;;;5096753;28;20381;-54
2022/10/24 00:58:36;;;;;;;9.90;1.67;;;17.90;1.00;;;;;;5101873;28;20373;-54
2022/10/24 01:01:04;;;;;;;9.70;1.40;;;17.80;1.00;;;;;;5103982;28;20388;-54
2022/10/24 01:03:30;;;;;;;7.53;1.30;;;17.80;1.00;;;;;;5094643;28;20377;-54
2022/10/24 01:06:11;;;;;;;6.63;1.10;;;17.80;1.00;;;;;;5106546;28;20462;-54
2022/10/24 01:09:01;;;;;;;6.28;1.27;;;17.80;1.00;;;;;;5100949;28;20388;-54
2022/10/24 01:11:40;;;;;;;8.00;1.23;;;17.90;1.00;;;;;;5094620;28;20955;-54
2022/10/24 01:14:17;;;;;;;9.32;1.30;;;17.90;1.00;;;;;;5104730;28;20410;-54
2022/10/24 01:17:27;;;;;;;8.38;1.00;;;17.80;1.00;;;;;;5101936;28;20894;-56
2022/10/24 01:20:05;;;;;;;5.70;1.00;;;17.70;1.00;;;;;;5065012;28;20509;-53
2022/10/24 01:23:01;;;;;;;7.00;0.93;;;17.80;1.00;;;;;;5101752;28;20401;-53
2022/10/24 01:25:41;;;;;;;6.07;1.10;;;17.70;1.00;;;;;;5106547;28;20790;-55
2022/10/24 01:28:10;;;;;;;8.20;1.30;;;17.70;1.00;;;;;;5096818;28;20860;-55
2022/10/24 01:30:44;;;;;;;6.88;1.58;;;17.70;1.00;;;;;;5099966;28;20419;-56
2022/10/24 01:33:15;;;;;;;6.70;1.20;;;17.60;1.00;;;;;;5083792;28;20473;-55
2022/10/24 01:35:43;;;;;;;7.30;0.97;;;17.70;1.00;;;;;;5106216;28;20376;-55
2022/10/24 01:38:24;;;;;;;5.63;1.10;;;17.70;1.00;;;;;;5096880;28;20396;-55
2022/10/24 01:40:56;;;;;;;11.52;1.45;;;17.70;1.00;;;;;;5098887;28;20431;-55
2022/10/24 01:43:26;;;;;;;9.93;1.23;;;17.60;1.00;;;;;;5102828;28;20384;-55
2022/10/24 01:46:02;;;;;;;8.65;1.63;;;17.30;1.00;;;;;;5078614;28;20891;-55
2022/10/24 01:48:33;;;;;;;10.30;1.65;;;17.70;1.00;;;;;;5101811;28;20424;-55
2022/10/24 01:51:01;;;;;;;9.40;1.35;;;17.70;1.00;;;;;;5103289;28;20412;-57
2022/10/24 01:53:28;;;;;;;7.60;1.20;;;17.80;1.00;;;;;;5093432;28;20960;-56
2022/10/24 01:55:55;;;;;;;7.72;1.60;;;17.90;1.00;;;;;;5106118;28;20386;-55
2022/10/24 01:58:21;;;;;;;8.45;1.65;;;17.90;1.00;;;;;;5098226;28;20449;-55
2022/10/24 02:00:49;;;;;;;9.10;1.53;;;17.90;1.00;;;;;;5103409;28;20764;-56
2022/10/24 02:03:25;;;;;;;10.05;1.30;;;17.80;1.00;;;;;;5104794;28;20439;-55
2022/10/24 02:05:55;;;;;;;6.73;1.23;;;17.80;1.00;;;;;;5077446;28;20364;-55
2022/10/24 02:08:33;;;;;;;9.65;1.80;;;17.80;1.00;;;;;;5084348;28;20391;-55
2022/10/24 02:11:03;;;;;;;9.23;1.27;;;17.90;1.00;;;;;;5102484;28;20469;-55
2022/10/24 02:13:34;;;;;;;8.75;1.30;;;17.80;1.00;;;;;;5093563;28;20410;-55
2022/10/24 02:16:01;;;;;;;6.90;1.42;;;17.80;1.00;;;;;;5104842;28;20374;-55
2022/10/24 02:18:29;;;;;;;7.82;1.10;;;17.80;1.00;;;;;;5098836;28;20380;-55
2022/10/24 02:21:06;;;;;;;10.15;1.25;;;17.80;1.00;;;;;;5098245;28;20439;-55
2022/10/24 02:23:55;;;;;;;6.80;1.40;;;17.70;1.00;;;;;;5107111;28;20434;-55
2022/10/24 02:26:31;;;;;;;10.23;2.70;;;17.70;1.00;;;;;;5096992;28;20376;-55
2022/10/24 02:29:00;;;;;;;12.40;1.80;;;17.70;1.00;;;;;;5096793;28;20370;-54
2022/10/24 02:31:31;;;;;;;9.60;1.40;;;17.70;1.00;;;;;;5106643;28;20399;-54
2022/10/24 02:33:59;;;;;;;9.03;1.30;;;17.70;1.00;;;;;;5093942;28;20491;-55
2022/10/24 02:36:27;;;;;;;11.00;1.77;;;17.70;1.00;;;;;;5101553;28;20374;-54
2022/10/24 02:38:55;;;;;;;8.40;1.40;;;17.60;1.00;;;;;;5106372;28;20729;-54
2022/10/24 02:41:28;;;;;;;7.70;1.70;;;17.60;1.00;;;;;;5097568;28;20476;-54
2022/10/24 02:43:55;;;;;;;10.07;1.88;;;17.60;1.00;;;;;;5082915;28;20392;-53
2022/10/24 02:46:21;;;;;;;6.75;1.40;;;17.60;1.00;;;;;;5105777;28;20910;-54
2022/10/24 02:48:53;;;;;;;7.18;1.90;;;17.60;1.00;;;;;;5106002;28;20380;-53
2022/10/24 02:51:21;;;;;;;9.13;1.70;;;17.50;1.00;;;;;;5097302;28;20370;-53
2022/10/24 02:53:48;;;;;;;9.27;1.92;;;17.50;1.00;;;;;;5110676;28;20410;-53
2022/10/24 02:56:14;;;;;;;6.60;2.30;;;17.50;1.00;;;;;;5100115;28;20834;-54
2022/10/24 02:58:39;;;;;;;9.95;1.75;;;17.60;1.00;;;;;;5103402;28;20378;-54
2022/10/24 03:01:05;;;;;;;10.30;1.57;;;17.60;1.00;;;;;;5107221;28;20787;-54
2022/10/24 03:03:31;;;;;;;8.37;1.80;;;17.60;1.00;;;;;;5096449;28;20385;-54
2022/10/24 03:05:56;;;;;;;9.98;2.03;;;17.50;1.00;;;;;;5109251;28;20862;-54
2022/10/24 03:08:22;;;;;;;6.50;1.40;;;17.50;1.00;;;;;;5100674;28;20379;-53
2022/10/24 03:10:47;;;;;;;7.10;1.30;;;17.60;1.00;;;;;;5102155;28;20782;-54
2022/10/24 03:13:13;;;;;;;6.67;1.57;;;17.70;1.00;;;;;;5105092;28;20460;-54
2022/10/24 03:15:38;;;;;;;6.47;1.47;;;17.70;1.00;;;;;;5096717;28;20397;-54
2022/10/24 03:18:04;;;;;;;7.20;1.90;;;17.60;1.00;;;;;;5107495;28;20448;-54
2022/10/24 03:20:30;;;;;;;11.13;2.25;;;17.50;1.00;;;;;;5102306;28;20372;-54
2022/10/24 03:22:55;;;;;;;9.30;2.40;;;17.60;1.00;;;;;;5100435;28;20386;-54
2022/10/24 03:25:21;;;;;;;12.20;2.03;;;17.70;1.00;;;;;;5108811;28;20418;-54
2022/10/24 03:27:46;;;;;;;10.40;1.80;;;17.80;1.00;;;;;;5096450;28;20541;-54
2022/10/24 03:30:12;;;;;;;10.00;1.53;;;17.90;1.00;;;;;;5105506;28;20405;-55
2022/10/24 03:32:38;;;;;;;10.00;1.80;;;17.90;1.00;;;;;;5090433;28;20425;-54
2022/10/24 03:35:04;;;;;;;7.90;1.70;;;17.80;1.00;;;;;;5092849;28;20968;-54
2022/10/24 03:37:29;;;;;;;9.90;2.25;;;17.80;1.00;;;;;;5094130;28;20724;-54
2022/10/24 03:39:55;;;;;;;13.55;2.20;;;17.80;1.00;;;;;;5093683;28;20458;-54
2022/10/24 03:42:20;;;;;;;10.18;2.00;;;17.80;1.00;;;;;;5092880;28;20382;-54
2022/10/24 03:44:46;;;;;;;8.93;1.80;;;17.80;1.00;;;;;;5093545;28;20378;-54
2022/10/24 03:47:12;;;;;;;10.60;1.90;;;17.80;1.00;;;;;;5092005;28;20731;-54
2022/10/24 03:49:38;;;;;;;11.25;2.10;;;17.90;1.00;;;;;;5093013;28;20382;-54
2022/10/24 03:52:04;;;;;;;8.43;1.70;;;17.90;1.00;;;;;;5092210;28;20457;-54
2022/10/24 03:54:29;;;;;;;11.02;2.65;;;18.00;1.00;;;;;;5092780;28;20387;-54
2022/10/24 03:56:55;;;;;;;9.45;1.95;;;18.00;1.00;;;;;;5092871;28;20384;-54
2022/10/24 03:59:21;;;;;;;8.73;1.60;;;18.00;1.00;;;;;;5092399;28;20374;-54
2022/10/24 04:01:47;;;;;;;11.20;2.40;;;18.00;1.00;;;;;;5093700;28;20393;-54
2022/10/24 04:04:12;;;;;;;10.93;1.67;;;18.00;1.00;;;;;;5091781;28;20386;-54
2022/10/24 04:06:39;;;;;;;7.80;1.80;;;18.10;1.00;;;;;;5092779;28;20382;-54
2022/10/24 04:09:05;;;;;;;9.98;2.50;;;18.10;1.00;;;;;;5091902;28;20751;-54
2022/10/24 04:11:31;;;;;;;7.00;1.60;;;18.20;1.00;;;;;;5091356;28;20398;-54
2022/10/24 04:13:57;;;;;;;8.25;2.03;;;18.30;1.00;;;;;;5107561;28;20404;-54
2022/10/24 04:16:23;;;;;;;9.80;2.60;;;18.30;1.00;;;;;;5087189;28;20437;-54
2022/10/24 04:18:50;;;;;;;8.77;1.90;;;18.30;1.00;;;;;;5090268;28;20533;-55
2022/10/24 04:21:16;;;;;;;11.85;2.45;;;18.20;1.00;;;;;;5098898;28;20388;-55
2022/10/24 04:23:43;;;;;;;8.05;2.10;;;18.20;1.00;;;;;;5109062;28;20745;-54
2022/10/24 04:26:11;;;;;;;6.90;1.60;;;18.20;1.00;;;;;;5096791;28;20463;-54
2022/10/24 04:28:36;;;;;;;9.10;2.05;;;18.20;1.00;;;;;;5100906;28;20378;-54
2022/10/24 04:31:02;;;;;;;7.87;2.10;;;18.30;1.00;;;;;;5104403;28;20488;-55
2022/10/24 04:33:28;;;;;;;8.45;1.92;;;18.20;1.00;;;;;;5093928;28;20847;-54
2022/10/24 04:35:53;;;;;;;12.00;2.58;;;18.20;1.00;;;;;;5106617;28;20936;-55
2022/10/24 04:38:20;;;;;;;9.82;3.22;;;18.10;1.00;;;;;;5098024;28;20397;-54
2022/10/24 04:40:48;;;;;;;10.10;2.10;;;18.20;1.00;;;;;;5099876;28;20386;-54
2022/10/24 04:43:14;;;;;;;10.50;2.43;;;18.30;1.00;;;;;;5102663;28;20472;-54
2022/10/24 04:45:40;;;;;;;8.85;2.28;;;18.20;1.00;;;;;;5107911;28;20451;-54
2022/10/24 04:48:05;;;;;;;9.80;1.83;;;18.30;1.00;;;;;;5096271;28;20579;-54
2022/10/24 04:50:31;;;;;;;11.57;2.00;;;18.30;1.00;;;;;;5101737;28;20389;-54
2022/10/24 04:52:57;;;;;;;10.67;2.57;;;18.20;1.00;;;;;;5095236;28;20406;-54
2022/10/24 04:55:22;;;;;;;13.20;2.65;;;18.20;1.00;;;;;;5117121;27;20408;-55
2022/10/24 04:57:48;;;;;;;10.05;2.60;;;18.10;1.00;;;;;;5083017;28;20403;-54
2022/10/24 05:00:14;;;;;;;9.83;2.50;;;18.00;1.00;;;;;;5089368;28;20453;-54
2022/10/24 05:02:39;;;;;;;9.23;2.10;;;17.90;1.00;;;;;;5099745;28;20404;-54
2022/10/24 05:05:06;;;;;;;11.40;2.13;;;17.90;1.00;;;;;;5096423;28;20401;-54
2022/10/24 05:07:31;;;;;;;13.55;2.65;;;17.90;1.00;;;;;;5107301;28;20395;-54
2022/10/24 05:09:57;;;;;;;8.38;1.90;;;17.90;1.00;;;;;;5096085;28;20737;-54
2022/10/24 05:12:22;;;;;;;7.43;1.83;;;17.90;1.00;;;;;;5099879;28;20446;-54
2022/10/24 05:14:48;;;;;;;12.30;2.40;;;18.00;1.00;;;;;;5101205;28;20847;-54
2022/10/24 05:17:14;;;;;;;9.57;1.70;;;18.10;1.00;;;;;;5095286;28;20444;-54
2022/10/24 05:19:40;;;;;;;8.23;2.00;;;18.10;1.00;;;;;;5099031;28;20867;-54
2022/10/24 05:22:05;;;;;;;9.80;1.85;;;18.10;1.00;;;;;;5088908;28;20473;-54
2022/10/24 05:24:31;;;;;;;7.57;1.40;;;18.20;1.00;;;;;;5093495;28;20380;-54
2022/10/24 05:26:57;;;;;;;8.40;2.20;;;18.20;1.00;;;;;;5098477;28;20967;-54
2022/10/24 05:29:22;;;;;;;7.93;2.30;;;18.20;1.00;;;;;;5105421;28;20384;-54
2022/10/24 05:31:48;;;;;;;13.57;2.40;;;18.20;1.00;;;;;;5093405;28;20497;-54
2022/10/24 05:34:13;;;;;;;10.70;2.10;;;18.20;1.00;;;;;;5103870;28;20406;-56
2022/10/24 05:36:39;;;;;;;7.72;1.83;;;18.10;1.00;;;;;;5099806;28;20448;-56
2022/10/24 05:39:05;;;;;;;14.32;2.10;;;17.70;1.00;;;;;;5096797;28;20460;-57
2022/10/24 05:41:31;;;;;;;10.80;2.70;;;17.50;1.00;;;;;;5094158;28;20447;-56
2022/10/24 05:43:57;;;;;;;7.38;1.60;;;17.30;1.00;;;;;;5090188;28;20394;-56
2022/10/24 05:46:22;;;;;;;8.38;1.77;;;17.10;99.90;;;;;;5089263;28;20373;-56
2022/10/24 05:48:48;;;;;;;12.47;1.90;;;16.90;1.00;;;;;;5090161;28;20457;-56
2022/10/24 05:51:14;;;;;;;10.80;2.28;;;16.70;1.00;;;;;;5089048;28;20461;-55
2022/10/24 05:53:40;;;;;;;6.15;1.90;;;16.60;1.00;;;;;;5089815;28;20490;-55
2022/10/24 05:56:06;;;;;;;7.30;2.00;;;16.60;1.00;;;;;;5089448;28;20382;-56
2022/10/24 05:58:31;;;;;;;7.82;2.17;;;16.50;1.00;;;;;;5090210;28;20803;-55
2022/10/24 06:00:57;;;;;;;10.93;2.40;;;16.60;1.00;;;;;;5090294;28;20398;-55
2022/10/24 06:03:23;;;;;;;7.17;1.60;;;16.70;1.00;;;;;;5087990;28;20392;-55
2022/10/24 06:05:54;;;;;;;7.20;2.10;;;16.70;1.00;;;;;;5081491;28;20498;-55
2022/10/24 06:08:20;;;;;;;11.60;2.53;;;16.70;90.70;;;;;;5081344;28;20378;-55
2022/10/24 06:10:47;;;;;;;9.80;2.70;;;16.60;99.90;;;;;;5090091;28;20739;-56
2022/10/24 06:13:13;;;;;;;12.32;3.10;;;16.70;99.90;;;;;;5088757;28;20493;-56
2022/10/24 06:15:41;;;;;;;13.40;1.92;;;16.80;99.90;;;;;;5089731;28;20775;-56
2022/10/24 06:18:06;;;;;;;6.65;1.70;;;16.70;99.90;;;;;;5088998;28;20378;-56
2022/10/24 06:20:32;;;;;;;7.80;2.00;;;16.70;99.90;;;;;;5089651;28;20878;-56
2022/10/24 06:22:57;;;;;;;9.60;2.30;;;16.80;99.90;;;;;;5089681;28;20390;-56
2022/10/24 06:25:23;;;;;;;8.32;2.25;;;16.80;99.90;;;;;;5089490;28;20374;-56
2022/10/24 06:27:49;;;;;;;10.05;2.50;;;16.90;25.10;;;;;;5089759;28;20496;-55
2022/10/24 06:30:15;;;;;;;9.07;1.93;;;16.80;1.00;;;;;;5088952;28;20389;-54
2022/10/24 06:32:40;;;;;;;12.32;2.80;;;16.90;70.00;;;;;;5089349;28;20457;-54
2022/10/24 06:35:10;;;;;;;6.63;2.10;;;16.80;99.90;;;;;;5087790;28;21514;-54
2022/10/24 06:37:36;;;;;;;11.18;2.50;;;16.70;99.90;;;;;;5089593;28;20370;-55
2022/10/24 06:40:01;;;;;;;12.57;2.50;;;16.70;99.90;;;;;;5089319;28;20386;-56
2022/10/24 06:42:27;;;;;;;10.27;2.03;;;16.70;99.90;;;;;;5089169;28;20390;-54
2022/10/24 06:44:52;;;;;;;11.37;3.33;;;16.70;99.90;;;;;;5089591;28;20858;-55
2022/10/24 06:47:18;;;;;;;8.07;1.90;;;16.60;99.90;;;;;;5089094;28;20377;-54
2022/10/24 06:49:44;;;;;;;8.73;2.00;;;16.50;99.90;;;;;;5089755;28;20422;-54
2022/10/24 06:52:09;;;;;;;7.55;1.83;;;16.50;99.90;;;;;;5088409;28;20865;-54
2022/10/24 06:54:35;;;;;;;8.07;2.10;;;16.60;99.90;;;;;;5089773;28;20385;-54
2022/10/24 06:57:01;;;;;;;9.13;2.40;;;16.60;99.90;;;;;;5089199;28;20727;-56
2022/10/24 06:59:26;;;;;;;10.57;2.40;;;16.60;99.90;;;;;;5088910;28;20417;-55
2022/10/24 07:01:52;;;;;;;11.60;2.40;;;16.70;99.90;;;;;;5089678;28;20489;-55
2022/10/24 07:04:18;;;;;;;8.40;2.50;;;16.60;99.90;;;;;;5088794;28;20397;-54
2022/10/24 07:06:43;;;;;;;12.18;2.70;;;16.60;99.90;;;;;;5089271;28;20839;-55
2022/10/24 07:09:11;;;;;;;12.00;2.30;;;16.50;99.90;;;;;;5088755;28;20426;-54
2022/10/24 07:11:36;;;;;;;8.13;2.22;;;16.40;99.90;;;;;;5089285;28;20374;-54
2022/10/24 07:14:02;;;;;;;9.23;2.20;;;16.50;99.90;;;;;;5089180;28;21008;-56
2022/10/24 07:16:28;;;;;;;8.18;2.08;;;16.50;99.90;;;;;;5089157;28;20392;-54
2022/10/24 07:18:55;;;;;;;13.07;3.63;;;16.40;99.90;;;;;;5089305;28;20380;-54
2022/10/24 07:21:23;;;;;;;11.27;2.47;;;16.40;1.00;;;;;;5088356;28;21162;-54
2022/10/24 07:23:52;;;;;;;8.40;2.08;;;16.40;1.00;;;;;;5089901;28;20378;-54
2022/10/24 07:26:20;;;;;;;7.72;2.22;;;16.40;1.00;;;;;;5092216;28;20386;-54
2022/10/24 07:28:46;;;;;;;10.80;2.15;;;16.40;1.00;;;;;;5093012;28;20871;-54
2022/10/24 07:31:16;;;;;;;9.32;2.50;;;16.30;1.00;;;;;;5092278;28;20855;-54
2022/10/24 07:33:41;;;;;;;7.88;2.10;;;16.40;1.00;;;;;;5092899;28;20453;-54
2022/10/24 07:36:07;;;;;;;11.57;2.70;;;16.50;1.00;;;;;;5092796;28;20421;-55
2022/10/24 07:38:33;;;;;;;8.30;2.40;;;16.50;1.00;;;;;;5092808;28;20827;-54
2022/10/24 07:41:05;;;;;;;9.47;2.93;;;16.60;1.00;;;;;;5092481;28;20384;-54
2022/10/24 07:43:30;;;;;;;7.25;2.25;;;16.70;1.00;;;;;;5092822;28;20386;-54
2022/10/24 07:45:56;;;;;;;7.73;1.90;;;16.60;99.90;;;;;;5093267;28;20841;-54
2022/10/24 07:48:22;;;;;;;8.40;2.20;;;16.50;99.90;;;;;;5091865;28;20389;-54
2022/10/24 07:50:48;;;;;;;13.47;2.30;;;16.50;1.00;;;;;;5092684;28;20370;-54
2022/10/24 07:53:14;;;;;;;7.82;1.85;;;16.40;1.00;;;;;;5091920;28;20464;-55
2022/10/24 07:55:41;;;;;;;9.60;3.20;;;16.40;1.00;;;;;;5092975;28;20405;-54
2022/10/24 07:58:08;;;;;;;10.20;2.30;;;16.40;1.00;;;;;;5091354;28;20881;-55
2022/10/24 08:00:34;;;;;;;10.82;2.33;;;16.40;99.90;;;;;;5092766;28;20374;-55
2022/10/24 08:03:00;;;;;;;11.73;2.17;;;16.50;99.90;;;;;;5092601;28;20451;-54
2022/10/24 08:05:26;;;;;;;11.20;1.90;;;16.50;99.90;;;;;;5091879;28;20732;-54
2022/10/24 08:07:52;;;;;;;9.10;2.23;;;16.60;99.90;;;;;;5092362;28;20396;-54
2022/10/24 08:10:17;;;;;;;9.30;2.00;;;16.70;99.90;;;;;;5091560;28;20866;-54
2022/10/24 08:12:43;;;;;;;7.70;2.20;;;16.70;99.90;;;;;;5092606;28;20405;-54
2022/10/24 08:15:09;;;;;;;8.63;2.10;;;16.90;99.90;;;;;;5091545;28;20862;-54
2022/10/24 08:17:37;;;;;;;8.98;1.85;;;16.80;1.00;;;;;;5092643;28;20382;-54
2022/10/24 08:20:05;;;;;;;10.27;2.17;;;16.80;99.90;;;;;;5091969;28;20378;-56
2022/10/24 08:22:32;;;;;;;8.40;2.30;;;16.90;99.90;;;;;;5091622;28;20382;-54
2022/10/24 08:24:58;;;;;;;10.95;2.35;;;16.80;99.90;;;;;;5074064;28;20378;-54
2022/10/24 08:27:24;;;;;;;6.75;1.50;;;16.80;99.90;;;;;;5091666;28;20378;-54
2022/10/24 08:29:49;;;;;;;7.35;2.10;;;16.80;1.00;;;;;;5092381;28;20384;-54
2022/10/24 08:32:15;;;;;;;7.80;1.90;;;16.90;99.90;;;;;;5091221;28;20405;-55
2022/10/24 08:34:40;;;;;;;7.50;1.90;;;17.00;99.90;;;;;;5092137;28;20382;-55
2022/10/24 08:37:06;;;;;;;8.27;2.00;;;17.00;99.90;;;;;;5090970;28;20730;-55
2022/10/24 08:39:32;;;;;;;8.50;1.98;;;16.90;99.90;;;;;;5091521;28;20392;-54
2022/10/24 08:42:02;;;;;;;7.22;1.70;;;17.00;99.90;;;;;;5091305;28;20908;-55
2022/10/24 08:44:32;;;;;;;9.07;1.98;;;17.00;99.90;;;;;;5092032;28;20405;-55
2022/10/24 08:47:12;;;;;;;8.88;2.00;;;17.10;99.90;;;;;;5091366;28;20378;-54
2022/10/24 08:50:00;;;;;;;7.50;2.10;;;17.20;99.90;;;;;;5091285;28;20424;-54
2022/10/24 08:52:43;;;;;;;13.93;2.60;;;17.30;99.90;;;;;;5090549;28;21240;-54
2022/10/24 08:55:37;;;;;;;7.93;2.00;;;17.30;99.90;;;;;;5090790;28;20390;-55
2022/10/24 08:58:03;;;;;;;7.20;1.60;;;17.20;99.90;;;;;;5091303;28;20370;-57
2022/10/24 09:00:41;;;;;;;8.65;2.10;;;17.20;99.90;;;;;;5091831;28;20743;-56
2022/10/24 09:03:13;;;;;;;6.70;1.75;;;17.30;99.90;;;;;;5091124;28;20465;-56
2022/10/24 09:05:47;;;;;;;9.30;2.00;;;17.30;37.20;;;;;;5091987;28;20719;-56
2022/10/24 09:08:23;;;;;;;6.50;1.70;;;17.30;1.00;;;;;;5090421;28;20410;-55
2022/10/24 09:10:57;;;;;;;7.10;1.52;;;17.20;1.00;;;;;;5091498;28;20366;-56
2022/10/24 09:13:22;;;;;;;9.07;1.60;;;17.20;1.00;;;;;;5090310;28;21177;-56
2022/10/24 09:15:49;;;;;;;8.13;1.77;;;17.20;1.00;;;;;;5091030;28;20466;-56
2022/10/24 09:18:49;;;;;;;10.10;1.90;;;17.20;1.00;;;;;;5090049;28;20378;-56
2022/10/24 09:21:15;;;;;;;6.32;1.35;;;17.20;1.00;;;;;;5037264;28;20473;-54
2022/10/24 09:23:42;;;;;;;7.93;1.60;;;17.20;3.00;;;;;;5090975;28;20469;-54
2022/10/24 09:26:14;;;;;;;7.95;1.60;;;17.20;1.00;;;;;;5090195;28;20366;-55
2022/10/24 09:28:41;;;;;;;9.02;1.90;;;17.20;1.00;;;;;;5090905;28;20378;-55
2022/10/24 09:31:17;;;;;;;6.00;1.85;;;17.20;1.00;;;;;;5089996;28;20859;-55
2022/10/24 09:33:45;;;;;;;10.10;1.88;;;17.20;1.00;;;;;;5089979;28;20418;-55
2022/10/24 09:36:13;;;;;;;6.97;1.90;;;17.20;1.00;;;;;;5089742;28;20378;-56
2022/10/24 09:38:40;;;;;;;7.40;1.60;;;17.30;99.90;;;;;;5090572;28;20375;-55
2022/10/24 09:41:17;;;;;;;7.38;1.48;;;17.20;99.90;;;;;;5090199;28;20400;-55
2022/10/24 09:43:42;;;;;;;7.70;1.70;;;17.10;1.00;;;;;;5090815;28;20382;-55
2022/10/24 09:46:17;;;;;;;8.80;1.67;;;16.90;99.90;;;;;;5090018;28;20420;-55
2022/10/24 09:49:03;;;;;;;8.02;1.50;;;16.90;99.90;;;;;;5090551;28;20385;-56
2022/10/24 09:51:40;;;;;;;7.60;1.50;;;17.00;99.90;;;;;;5090440;28;20444;-55
2022/10/24 09:54:25;;;;;;;9.95;2.40;;;17.00;99.90;;;;;;5090559;28;20404;-56
2022/10/24 09:57:01;;;;;;;7.18;1.60;;;17.00;99.90;;;;;;5090965;28;20860;-56
2022/10/24 09:59:31;;;;;;;6.95;1.70;;;17.00;99.90;;;;;;5089383;28;20946;-55
2022/10/24 10:02:25;;;;;;;8.40;1.70;;;16.90;99.90;;;;;;5089846;28;20393;-55
2022/10/24 10:05:02;;;;;;;8.50;1.67;;;16.90;99.90;;;;;;5090187;28;20465;-55
2022/10/24 10:07:32;;;;;;;6.93;1.40;;;17.00;99.90;;;;;;5089450;28;20370;-55
2022/10/24 10:10:05;;;;;;;6.45;1.85;;;16.90;99.90;;;;;;5090051;28;20374;-55
2022/10/24 10:12:40;;;;;;;7.70;1.58;;;16.90;99.90;;;;;;5089294;28;20394;-55
2022/10/24 10:15:17;;;;;;;7.57;1.70;;;16.90;99.90;;;;;;5089580;28;20470;-56
2022/10/24 10:17:56;;;;;;;7.00;1.50;;;16.90;99.90;;;;;;5090185;28;20385;-55
2022/10/24 10:20:44;;;;;;;7.30;1.58;;;16.90;99.90;;;;;;5088996;28;20859;-55
2022/10/24 10:23:35;;;;;;;7.35;1.48;;;17.10;18.70;;;;;;5088666;28;20397;-56
2022/10/24 10:26:14;;;;;;;6.35;1.33;;;17.20;99.90;;;;;;5089935;28;20374;-54
2022/10/24 10:29:19;;;;;;;6.55;1.75;;;17.40;66.40;;;;;;5089714;28;20362;-55
2022/10/24 10:32:10;;;;;;;9.73;1.95;;;17.40;99.90;;;;;;5088085;28;20402;-55
2022/10/24 10:34:44;;;;;;;6.65;1.20;;;17.50;84.00;;;;;;5088815;28;20405;-55
2022/10/24 10:37:21;;;;;;;5.65;1.20;;;17.30;99.90;;;;;;5088722;28;20481;-56
2022/10/24 10:39:52;;;;;;;8.90;1.98;;;17.50;99.90;;;;;;5089708;28;20462;-56
2022/10/24 10:42:24;;;;;;;9.65;1.90;;;17.40;99.90;;;;;;5089188;28;20382;-55
2022/10/24 10:45:01;;;;;;;5.70;1.20;;;17.50;99.90;;;;;;5089474;28;20382;-55
2022/10/24 10:47:55;;;;;;;7.55;1.92;;;17.50;1.00;;;;;;5089341;28;20382;-55
2022/10/24 10:50:30;;;;;;;6.10;1.25;;;17.50;99.90;;;;;;5088978;28;20386;-55
2022/10/24 10:53:10;;;;;;;8.70;1.50;;;17.60;99.90;;;;;;5089510;28;20413;-56
2022/10/24 10:55:56;;;;;;;9.15;1.60;;;17.70;99.90;;;;;;5089676;28;20374;-56
2022/10/24 10:58:54;;;;;;;6.13;1.33;;;17.70;99.90;;;;;;5088443;28;20390;-56
2022/10/24 11:01:47;;;;;;;7.55;1.88;;;17.70;1.00;;;;;;5092673;28;20397;-56
2022/10/24 11:04:41;;;;;;;7.45;1.60;;;17.60;5.10;;;;;;5092697;28;20386;-56
2022/10/24 11:07:54;;;;;;;6.72;1.40;;;17.50;99.90;;;;;;5079785;28;20413;-57
2022/10/24 11:10:23;;;;;;;8.15;1.73;;;17.50;5.20;;;;;;5055153;28;20390;-56
2022/10/24 11:12:49;;;;;;;7.18;1.25;;;17.50;1.00;;;;;;5092985;28;20797;-56
2022/10/24 11:15:29;;;;;;;8.35;1.40;;;17.60;1.00;;;;;;5092931;28;20382;-56
2022/10/24 11:18:16;;;;;;;7.85;1.70;;;17.50;1.00;;;;;;5093422;28;20386;-54
2022/10/24 11:20:52;;;;;;;6.15;1.50;;;17.70;1.00;;;;;;5093006;28;20863;-54
2022/10/24 11:23:23;;;;;;;6.70;1.38;;;17.70;99.90;;;;;;5092007;28;20708;-54
2022/10/24 11:26:04;;;;;;;7.87;1.60;;;17.50;99.90;;;;;;5092974;28;20381;-54
2022/10/24 11:28:41;;;;;;;5.70;1.20;;;17.50;99.90;;;;;;5092647;28;20374;-54
2022/10/24 11:31:17;;;;;;;5.90;1.35;;;17.40;1.00;;;;;;5093048;28;20422;-56
2022/10/24 11:33:52;;;;;;;10.80;1.88;;;17.40;40.40;;;;;;5092634;28;20818;-54
2022/10/24 11:36:40;;;;;;;8.20;1.60;;;17.40;36.70;;;;;;5092594;28;20385;-54
2022/10/24 11:39:43;;;;;;;6.70;1.10;;;17.50;1.00;;;;;;5092597;28;20381;-56
2022/10/24 11:42:26;;;;;;;7.90;1.17;;;17.60;99.90;;;;;;5091949;28;20457;-56
2022/10/24 11:44:59;;;;;;;5.03;0.90;;;17.60;99.90;;;;;;5092796;28;20393;-54
2022/10/24 11:47:24;;;;;;;6.05;1.38;;;17.60;99.90;;;;;;5092456;28;20700;-54
2022/10/24 11:49:59;;;;;;;8.07;1.60;;;17.70;99.90;;;;;;5092267;28;20882;-54
2022/10/24 11:52:31;;;;;;;7.55;1.10;;;17.60;99.90;;;;;;5092279;28;20686;-54
2022/10/24 11:55:12;;;;;;;6.53;1.00;;;17.70;99.90;;;;;;5092717;28;20378;-54
2022/10/24 11:57:38;;;;;;;5.82;1.33;;;17.70;99.90;;;;;;5092542;28;20382;-54
2022/10/24 12:00:05;;;;;;;5.93;1.30;;;17.80;99.90;;;;;;5092365;28;20732;-54
2022/10/24 12:02:36;;;;;;;6.43;0.90;;;17.80;52.60;;;;;;5091901;28;20875;-54
2022/10/24 12:05:44;;;;;;;5.68;1.20;;;17.80;1.00;;;;;;5092347;28;20839;-54
2022/10/24 12:08:22;;;;;;;9.00;1.40;;;17.90;1.00;;;;;;5076304;28;20712;-55
2022/10/24 12:10:51;;;;;;;5.68;1.20;;;18.10;1.00;;;;;;5091888;28;20421;-54
2022/10/24 12:13:42;;;;;;;6.10;1.30;;;18.10;1.00;;;;;;5091127;28;20413;-54
2022/10/24 12:16:30;;;;;;;7.03;1.40;;;18.10;1.00;;;;;;5080384;28;20390;-56
2022/10/24 12:18:59;;;;;;;8.57;1.70;;;18.00;1.00;;;;;;5092192;28;20858;-54
2022/10/24 12:21:32;;;;;;;6.10;1.42;;;18.00;1.00;;;;;;5091286;28;20393;-54
2022/10/24 12:23:59;;;;;;;6.93;1.30;;;18.00;1.00;;;;;;5092277;28;20855;-54
2022/10/24 12:26:27;;;;;;;4.63;0.90;;;17.90;46.20;;;;;;5091130;28;20370;-54
2022/10/24 12:28:55;;;;;;;5.65;1.30;;;18.00;1.00;;;;;;5091855;28;20735;-54
2022/10/24 12:31:27;;;;;;;5.07;1.20;;;17.90;1.00;;;;;;5091107;28;20393;-54
2022/10/24 12:34:14;;;;;;;6.43;1.20;;;17.90;1.00;;;;;;5091514;28;20410;-54
2022/10/24 12:37:01;;;;;;;4.82;1.20;;;17.80;99.90;;;;;;5091937;28;20374;-54
2022/10/24 12:39:41;;;;;;;5.32;0.85;;;17.80;99.90;;;;;;5091290;28;21004;-54
2022/10/24 12:42:30;;;;;;;5.47;0.90;;;17.90;1.00;;;;;;5091845;28;20386;-55
2022/10/24 12:44:58;;;;;;;5.90;0.95;;;17.90;1.00;;;;;;5088786;28;20374;-54
2022/10/24 12:47:28;;;;;;;5.20;1.10;;;17.90;1.00;;;;;;5090810;28;20380;-54
2022/10/24 12:49:55;;;;;;;4.78;0.90;;;17.90;1.00;;;;;;5091520;28;20774;-54
2022/10/24 12:52:29;;;;;;;5.57;1.30;;;18.00;1.00;;;;;;5091176;28;20378;-54
2022/10/24 12:54:56;;;;;;;4.53;1.05;;;18.10;1.00;;;;;;5092019;28;20386;-54
2022/10/24 12:57:29;;;;;;;5.47;1.10;;;18.10;1.00;;;;;;5090411;28;20840;-54
2022/10/24 13:00:00;;;;;;;5.85;1.15;;;18.20;1.00;;;;;;5091292;28;20381;-54
2022/10/24 13:02:31;;;;;;;5.03;1.23;;;18.30;99.90;;;;;;5090719;28;20394;-55
2022/10/24 13:05:20;;;;;;;7.55;1.10;;;18.20;99.90;;;;;;5091337;28;20386;-54
2022/10/24 13:08:14;;;;;;;5.40;1.20;;;18.30;99.90;;;;;;5091545;28;20389;-54
2022/10/24 13:11:12;;;;;;;5.50;1.17;;;18.40;99.90;;;;;;5091471;28;20390;-55